sensor_id;sensor_type;location;lat;lon;timestamp;P1;durP1;ratioP1;P2;durP2;ratioP2
42714;SDS011;28351;51.480;5.706;2023-03-01T00:02:10;7.25;;;4.70;;
42714;SDS011;28351;51.480;5.706;2023-03-01T00:04:35;10.63;;;4.80;;
42714;SDS011;28351;51.480;5.706;2023-03-01T00:07:01;8.88;;;4.85;;
42714;SDS011;28351;51.480;5.706;2023-03-01T00:09:27;11.10;;;4.78;;
42714;SDS011;28351;51.480;5.706;2023-03-01T00:11:52;8.52;;;4.85;;
42714;SDS011;28351;51.480;5.706;2023-03-01T00:14:18;9.07;;;5.10;;
42714;SDS011;28351;51.480;5.706;2023-03-01T00:16:44;9.75;;;5.32;;
42714;SDS011;28351;51.480;5.706;2023-03-01T00:19:17;7.45;;;4.15;;
42714;SDS011;28351;51.480;5.706;2023-03-01T00:21:44;9.30;;;4.65;;
42714;SDS011;28351;51.480;5.706;2023-03-01T00:24:10;9.68;;;4.90;;
42714;SDS011;28351;51.480;5.706;2023-03-01T00:26:37;9.98;;;4.50;;
42714;SDS011;28351;51.480;5.706;2023-03-01T00:29:05;7.90;;;4.53;;
42714;SDS011;28351;51.480;5.706;2023-03-01T00:31:32;7.43;;;4.55;;
42714;SDS011;28351;51.480;5.706;2023-03-01T00:33:59;7.75;;;4.78;;
42714;SDS011;28351;51.480;5.706;2023-03-01T00:38:53;7.75;;;4.40;;
42714;SDS011;28351;51.480;5.706;2023-03-01T00:41:22;7.53;;;4.53;;
42714;SDS011;28351;51.480;5.706;2023-03-01T00:43:49;7.90;;;4.03;;
42714;SDS011;28351;51.480;5.706;2023-03-01T00:46:16;8.35;;;4.13;;
42714;SDS011;28351;51.480;5.706;2023-03-01T00:48:44;8.57;;;4.95;;
42714;SDS011;28351;51.480;5.706;2023-03-01T00:53:37;11.40;;;6.22;;
42714;SDS011;28351;51.480;5.706;2023-03-01T00:56:03;6.75;;;3.47;;
42714;SDS011;28351;51.480;5.706;2023-03-01T00:58:29;6.97;;;4.00;;
42714;SDS011;28351;51.480;5.706;2023-03-01T01:00:55;7.05;;;3.05;;
42714;SDS011;28351;51.480;5.706;2023-03-01T01:03:21;7.15;;;3.30;;
42714;SDS011;28351;51.480;5.706;2023-03-01T01:05:49;4.55;;;3.30;;
42714;SDS011;28351;51.480;5.706;2023-03-01T01:08:15;7.97;;;4.22;;
42714;SDS011;28351;51.480;5.706;2023-03-01T01:10:43;6.22;;;3.50;;
42714;SDS011;28351;51.480;5.706;2023-03-01T01:13:09;8.63;;;4.53;;
42714;SDS011;28351;51.480;5.706;2023-03-01T01:15:35;7.80;;;4.22;;
42714;SDS011;28351;51.480;5.706;2023-03-01T01:18:01;7.43;;;4.43;;
42714;SDS011;28351;51.480;5.706;2023-03-01T01:20:27;9.82;;;3.30;;
42714;SDS011;28351;51.480;5.706;2023-03-01T01:22:53;7.00;;;4.03;;
42714;SDS011;28351;51.480;5.706;2023-03-01T01:25:19;10.40;;;4.90;;
42714;SDS011;28351;51.480;5.706;2023-03-01T01:27:44;10.10;;;5.90;;
42714;SDS011;28351;51.480;5.706;2023-03-01T01:30:10;10.00;;;4.85;;
42714;SDS011;28351;51.480;5.706;2023-03-01T01:32:36;7.53;;;3.03;;
42714;SDS011;28351;51.480;5.706;2023-03-01T01:35:02;9.02;;;3.72;;
42714;SDS011;28351;51.480;5.706;2023-03-01T01:37:28;4.45;;;3.05;;
42714;SDS011;28351;51.480;5.706;2023-03-01T01:39:58;10.40;;;4.78;;
42714;SDS011;28351;51.480;5.706;2023-03-01T01:42:25;6.07;;;3.33;;
42714;SDS011;28351;51.480;5.706;2023-03-01T01:48:03;10.52;;;5.40;;
42714;SDS011;28351;51.480;5.706;2023-03-01T01:50:35;8.00;;;4.93;;
42714;SDS011;28351;51.480;5.706;2023-03-01T01:53:17;8.85;;;5.53;;
42714;SDS011;28351;51.480;5.706;2023-03-01T01:55:49;10.35;;;4.72;;
42714;SDS011;28351;51.480;5.706;2023-03-01T01:58:19;5.95;;;3.50;;
42714;SDS011;28351;51.480;5.706;2023-03-01T02:00:46;5.40;;;3.13;;
42714;SDS011;28351;51.480;5.706;2023-03-01T02:03:14;10.50;;;4.90;;
42714;SDS011;28351;51.480;5.706;2023-03-01T02:05:53;5.05;;;3.10;;
42714;SDS011;28351;51.480;5.706;2023-03-01T02:08:27;3.67;;;2.78;;
42714;SDS011;28351;51.480;5.706;2023-03-01T02:10:57;7.72;;;3.13;;
42714;SDS011;28351;51.480;5.706;2023-03-01T02:13:24;5.70;;;3.28;;
42714;SDS011;28351;51.480;5.706;2023-03-01T02:15:51;8.25;;;4.70;;
42714;SDS011;28351;51.480;5.706;2023-03-01T02:18:17;7.10;;;4.85;;
42714;SDS011;28351;51.480;5.706;2023-03-01T02:20:55;7.60;;;4.57;;
42714;SDS011;28351;51.480;5.706;2023-03-01T02:23:27;9.18;;;5.13;;
42714;SDS011;28351;51.480;5.706;2023-03-01T02:30:55;4.07;;;3.22;;
42714;SDS011;28351;51.480;5.706;2023-03-01T02:33:39;5.65;;;2.78;;
42714;SDS011;28351;51.480;5.706;2023-03-01T02:36:07;9.10;;;4.65;;
42714;SDS011;28351;51.480;5.706;2023-03-01T02:38:38;9.18;;;4.78;;
42714;SDS011;28351;51.480;5.706;2023-03-01T02:41:05;8.15;;;3.70;;
42714;SDS011;28351;51.480;5.706;2023-03-01T02:43:32;5.63;;;3.08;;
42714;SDS011;28351;51.480;5.706;2023-03-01T02:45:59;9.23;;;2.63;;
42714;SDS011;28351;51.480;5.706;2023-03-01T02:48:38;5.45;;;2.58;;
42714;SDS011;28351;51.480;5.706;2023-03-01T02:51:14;4.97;;;3.47;;
42714;SDS011;28351;51.480;5.706;2023-03-01T02:53:56;4.53;;;2.53;;
42714;SDS011;28351;51.480;5.706;2023-03-01T02:56:29;8.32;;;3.50;;
42714;SDS011;28351;51.480;5.706;2023-03-01T02:58:55;7.07;;;2.55;;
42714;SDS011;28351;51.480;5.706;2023-03-01T03:01:26;6.13;;;3.10;;
42714;SDS011;28351;51.480;5.706;2023-03-01T03:04:05;6.63;;;3.67;;
42714;SDS011;28351;51.480;5.706;2023-03-01T03:06:31;5.20;;;2.90;;
42714;SDS011;28351;51.480;5.706;2023-03-01T03:08:58;6.80;;;3.08;;
42714;SDS011;28351;51.480;5.706;2023-03-01T03:11:26;8.18;;;4.20;;
42714;SDS011;28351;51.480;5.706;2023-03-01T03:13:51;8.80;;;4.88;;
42714;SDS011;28351;51.480;5.706;2023-03-01T03:16:18;4.20;;;2.95;;
42714;SDS011;28351;51.480;5.706;2023-03-01T03:18:44;5.38;;;3.17;;
42714;SDS011;28351;51.480;5.706;2023-03-01T03:21:19;5.80;;;2.97;;
42714;SDS011;28351;51.480;5.706;2023-03-01T03:23:44;6.63;;;3.10;;
42714;SDS011;28351;51.480;5.706;2023-03-01T03:26:10;7.38;;;3.15;;
42714;SDS011;28351;51.480;5.706;2023-03-01T03:28:39;4.68;;;3.17;;
42714;SDS011;28351;51.480;5.706;2023-03-01T03:31:06;5.65;;;3.53;;
42714;SDS011;28351;51.480;5.706;2023-03-01T03:33:32;5.32;;;2.53;;
42714;SDS011;28351;51.480;5.706;2023-03-01T03:35:58;8.43;;;4.45;;
42714;SDS011;28351;51.480;5.706;2023-03-01T03:38:24;6.90;;;4.38;;
42714;SDS011;28351;51.480;5.706;2023-03-01T03:40:59;5.28;;;3.53;;
42714;SDS011;28351;51.480;5.706;2023-03-01T03:43:30;6.38;;;3.90;;
42714;SDS011;28351;51.480;5.706;2023-03-01T03:46:00;6.70;;;4.43;;
42714;SDS011;28351;51.480;5.706;2023-03-01T03:48:30;6.47;;;2.35;;
42714;SDS011;28351;51.480;5.706;2023-03-01T03:51:00;4.55;;;2.72;;
42714;SDS011;28351;51.480;5.706;2023-03-01T03:53:26;4.07;;;2.10;;
42714;SDS011;28351;51.480;5.706;2023-03-01T03:55:54;6.85;;;3.35;;
42714;SDS011;28351;51.480;5.706;2023-03-01T03:58:23;10.25;;;3.88;;
42714;SDS011;28351;51.480;5.706;2023-03-01T04:00:51;4.28;;;2.75;;
42714;SDS011;28351;51.480;5.706;2023-03-01T04:03:29;6.78;;;3.10;;
42714;SDS011;28351;51.480;5.706;2023-03-01T04:05:57;6.70;;;3.45;;
42714;SDS011;28351;51.480;5.706;2023-03-01T04:08:24;6.15;;;3.65;;
42714;SDS011;28351;51.480;5.706;2023-03-01T04:10:51;7.32;;;3.85;;
42714;SDS011;28351;51.480;5.706;2023-03-01T04:13:59;7.28;;;3.97;;
42714;SDS011;28351;51.480;5.706;2023-03-01T04:16:25;4.50;;;3.15;;
42714;SDS011;28351;51.480;5.706;2023-03-01T04:18:51;5.95;;;3.28;;
42714;SDS011;28351;51.480;5.706;2023-03-01T04:21:25;5.40;;;2.92;;
42714;SDS011;28351;51.480;5.706;2023-03-01T04:23:51;7.57;;;4.57;;
42714;SDS011;28351;51.480;5.706;2023-03-01T04:26:17;7.10;;;3.92;;
42714;SDS011;28351;51.480;5.706;2023-03-01T04:28:52;4.72;;;3.05;;
42714;SDS011;28351;51.480;5.706;2023-03-01T04:34:09;6.65;;;4.10;;
42714;SDS011;28351;51.480;5.706;2023-03-01T04:36:35;5.45;;;3.17;;
42714;SDS011;28351;51.480;5.706;2023-03-01T04:39:00;8.50;;;4.15;;
42714;SDS011;28351;51.480;5.706;2023-03-01T04:41:36;10.82;;;5.38;;
42714;SDS011;28351;51.480;5.706;2023-03-01T04:47:26;7.38;;;4.22;;
42714;SDS011;28351;51.480;5.706;2023-03-01T04:49:58;9.55;;;5.20;;
42714;SDS011;28351;51.480;5.706;2023-03-01T04:59:16;8.25;;;4.57;;
42714;SDS011;28351;51.480;5.706;2023-03-01T05:01:42;8.85;;;4.28;;
42714;SDS011;28351;51.480;5.706;2023-03-01T05:04:08;6.85;;;4.28;;
42714;SDS011;28351;51.480;5.706;2023-03-01T05:09:51;9.60;;;4.65;;
42714;SDS011;28351;51.480;5.706;2023-03-01T05:12:16;6.53;;;3.75;;
42714;SDS011;28351;51.480;5.706;2023-03-01T05:14:45;9.88;;;4.70;;
42714;SDS011;28351;51.480;5.706;2023-03-01T05:17:10;6.38;;;3.28;;
42714;SDS011;28351;51.480;5.706;2023-03-01T05:19:36;6.15;;;3.30;;
42714;SDS011;28351;51.480;5.706;2023-03-01T05:22:02;5.80;;;2.97;;
42714;SDS011;28351;51.480;5.706;2023-03-01T05:24:56;5.68;;;3.33;;
42714;SDS011;28351;51.480;5.706;2023-03-01T05:30:53;11.85;;;3.75;;
42714;SDS011;28351;51.480;5.706;2023-03-01T05:33:19;13.20;;;3.17;;
42714;SDS011;28351;51.480;5.706;2023-03-01T05:35:50;5.85;;;3.40;;
42714;SDS011;28351;51.480;5.706;2023-03-01T05:38:33;7.95;;;3.45;;
42714;SDS011;28351;51.480;5.706;2023-03-01T05:40:59;6.10;;;3.35;;
42714;SDS011;28351;51.480;5.706;2023-03-01T05:43:29;6.30;;;3.17;;
42714;SDS011;28351;51.480;5.706;2023-03-01T05:45:58;7.45;;;4.30;;
42714;SDS011;28351;51.480;5.706;2023-03-01T05:48:25;5.68;;;3.70;;
42714;SDS011;28351;51.480;5.706;2023-03-01T05:50:51;9.02;;;3.92;;
42714;SDS011;28351;51.480;5.706;2023-03-01T05:53:17;9.10;;;3.88;;
42714;SDS011;28351;51.480;5.706;2023-03-01T05:55:52;8.82;;;3.42;;
42714;SDS011;28351;51.480;5.706;2023-03-01T05:58:48;4.20;;;3.05;;
42714;SDS011;28351;51.480;5.706;2023-03-01T06:01:17;8.15;;;4.13;;
42714;SDS011;28351;51.480;5.706;2023-03-01T06:03:43;10.10;;;3.70;;
42714;SDS011;28351;51.480;5.706;2023-03-01T06:06:08;5.20;;;3.25;;
42714;SDS011;28351;51.480;5.706;2023-03-01T06:08:55;14.10;;;5.90;;
42714;SDS011;28351;51.480;5.706;2023-03-01T06:11:24;6.10;;;3.45;;
42714;SDS011;28351;51.480;5.706;2023-03-01T06:14:28;12.20;;;5.45;;
42714;SDS011;28351;51.480;5.706;2023-03-01T06:16:55;9.98;;;4.82;;
42714;SDS011;28351;51.480;5.706;2023-03-01T06:19:22;5.03;;;3.08;;
42714;SDS011;28351;51.480;5.706;2023-03-01T06:25:14;11.10;;;4.72;;
42714;SDS011;28351;51.480;5.706;2023-03-01T06:28:11;10.75;;;6.22;;
42714;SDS011;28351;51.480;5.706;2023-03-01T06:40:39;9.65;;;5.25;;
42714;SDS011;28351;51.480;5.706;2023-03-01T06:46:57;10.75;;;5.65;;
42714;SDS011;28351;51.480;5.706;2023-03-01T06:52:56;9.93;;;4.05;;
42714;SDS011;28351;51.480;5.706;2023-03-01T06:56:05;10.68;;;5.53;;
42714;SDS011;28351;51.480;5.706;2023-03-01T06:59:14;6.10;;;3.90;;
42714;SDS011;28351;51.480;5.706;2023-03-01T07:01:57;11.55;;;5.35;;
42714;SDS011;28351;51.480;5.706;2023-03-01T07:04:25;13.68;;;5.95;;
42714;SDS011;28351;51.480;5.706;2023-03-01T07:06:53;11.43;;;5.63;;
42714;SDS011;28351;51.480;5.706;2023-03-01T07:09:20;7.25;;;4.20;;
42714;SDS011;28351;51.480;5.706;2023-03-01T07:15:11;6.72;;;3.08;;
42714;SDS011;28351;51.480;5.706;2023-03-01T07:17:36;7.70;;;3.85;;
42714;SDS011;28351;51.480;5.706;2023-03-01T07:20:02;5.10;;;3.50;;
42714;SDS011;28351;51.480;5.706;2023-03-01T07:22:28;7.68;;;3.95;;
42714;SDS011;28351;51.480;5.706;2023-03-01T07:24:54;8.82;;;4.53;;
42714;SDS011;28351;51.480;5.706;2023-03-01T07:27:19;8.27;;;4.45;;
42714;SDS011;28351;51.480;5.706;2023-03-01T07:29:46;10.55;;;5.38;;
42714;SDS011;28351;51.480;5.706;2023-03-01T07:32:28;6.88;;;4.25;;
42714;SDS011;28351;51.480;5.706;2023-03-01T07:34:53;6.82;;;4.22;;
42714;SDS011;28351;51.480;5.706;2023-03-01T07:37:19;8.45;;;4.03;;
42714;SDS011;28351;51.480;5.706;2023-03-01T07:39:48;9.50;;;3.97;;
42714;SDS011;28351;51.480;5.706;2023-03-01T07:44:39;11.05;;;4.18;;
42714;SDS011;28351;51.480;5.706;2023-03-01T07:47:04;9.48;;;3.92;;
42714;SDS011;28351;51.480;5.706;2023-03-01T07:49:30;7.55;;;3.72;;
42714;SDS011;28351;51.480;5.706;2023-03-01T07:51:55;9.75;;;5.22;;
42714;SDS011;28351;51.480;5.706;2023-03-01T07:54:33;6.90;;;4.13;;
42714;SDS011;28351;51.480;5.706;2023-03-01T07:59:53;7.53;;;4.60;;
42714;SDS011;28351;51.480;5.706;2023-03-01T08:02:19;7.93;;;4.45;;
42714;SDS011;28351;51.480;5.706;2023-03-01T08:04:44;11.77;;;4.95;;
42714;SDS011;28351;51.480;5.706;2023-03-01T08:07:13;10.52;;;5.68;;
42714;SDS011;28351;51.480;5.706;2023-03-01T08:09:41;8.63;;;4.47;;
42714;SDS011;28351;51.480;5.706;2023-03-01T08:12:08;10.25;;;4.47;;
42714;SDS011;28351;51.480;5.706;2023-03-01T08:14:42;8.75;;;4.85;;
42714;SDS011;28351;51.480;5.706;2023-03-01T08:17:14;8.80;;;4.13;;
42714;SDS011;28351;51.480;5.706;2023-03-01T08:19:40;8.80;;;5.20;;
42714;SDS011;28351;51.480;5.706;2023-03-01T08:22:11;8.82;;;4.53;;
42714;SDS011;28351;51.480;5.706;2023-03-01T08:24:37;6.60;;;4.15;;
42714;SDS011;28351;51.480;5.706;2023-03-01T08:27:03;15.05;;;4.88;;
42714;SDS011;28351;51.480;5.706;2023-03-01T08:29:31;9.30;;;4.18;;
42714;SDS011;28351;51.480;5.706;2023-03-01T08:31:57;6.43;;;4.10;;
42714;SDS011;28351;51.480;5.706;2023-03-01T08:34:23;8.50;;;4.30;;
42714;SDS011;28351;51.480;5.706;2023-03-01T08:36:49;11.85;;;3.92;;
42714;SDS011;28351;51.480;5.706;2023-03-01T08:39:16;8.02;;;3.78;;
42714;SDS011;28351;51.480;5.706;2023-03-01T08:41:44;13.07;;;4.10;;
42714;SDS011;28351;51.480;5.706;2023-03-01T08:44:11;7.68;;;3.80;;
42714;SDS011;28351;51.480;5.706;2023-03-01T08:46:38;10.98;;;4.40;;
42714;SDS011;28351;51.480;5.706;2023-03-01T08:49:06;9.60;;;3.88;;
42714;SDS011;28351;51.480;5.706;2023-03-01T08:51:32;7.03;;;3.72;;
42714;SDS011;28351;51.480;5.706;2023-03-01T08:54:02;5.85;;;3.38;;
42714;SDS011;28351;51.480;5.706;2023-03-01T08:56:31;12.93;;;6.10;;
42714;SDS011;28351;51.480;5.706;2023-03-01T08:58:58;10.43;;;5.72;;
42714;SDS011;28351;51.480;5.706;2023-03-01T09:01:23;11.90;;;5.65;;
42714;SDS011;28351;51.480;5.706;2023-03-01T09:03:49;13.90;;;6.97;;
42714;SDS011;28351;51.480;5.706;2023-03-01T09:06:24;11.55;;;5.68;;
42714;SDS011;28351;51.480;5.706;2023-03-01T09:08:50;10.25;;;5.47;;
42714;SDS011;28351;51.480;5.706;2023-03-01T09:11:17;8.65;;;4.20;;
42714;SDS011;28351;51.480;5.706;2023-03-01T09:13:45;9.25;;;5.53;;
42714;SDS011;28351;51.480;5.706;2023-03-01T09:16:12;12.73;;;5.93;;
42714;SDS011;28351;51.480;5.706;2023-03-01T09:18:41;11.65;;;5.82;;
42714;SDS011;28351;51.480;5.706;2023-03-01T09:21:08;13.35;;;6.03;;
42714;SDS011;28351;51.480;5.706;2023-03-01T09:23:39;9.40;;;4.43;;
42714;SDS011;28351;51.480;5.706;2023-03-01T09:26:12;10.55;;;5.30;;
42714;SDS011;28351;51.480;5.706;2023-03-01T09:28:46;7.22;;;4.32;;
42714;SDS011;28351;51.480;5.706;2023-03-01T09:31:13;11.05;;;5.80;;
42714;SDS011;28351;51.480;5.706;2023-03-01T09:33:40;11.63;;;5.85;;
42714;SDS011;28351;51.480;5.706;2023-03-01T09:36:11;11.25;;;5.70;;
42714;SDS011;28351;51.480;5.706;2023-03-01T09:41:49;10.75;;;5.90;;
42714;SDS011;28351;51.480;5.706;2023-03-01T09:46:59;9.05;;;5.05;;
42714;SDS011;28351;51.480;5.706;2023-03-01T09:54:48;11.45;;;5.63;;
42714;SDS011;28351;51.480;5.706;2023-03-01T09:57:33;12.73;;;6.45;;
42714;SDS011;28351;51.480;5.706;2023-03-01T10:02:43;10.00;;;5.72;;
42714;SDS011;28351;51.480;5.706;2023-03-01T10:08:13;10.98;;;6.40;;
42714;SDS011;28351;51.480;5.706;2023-03-01T10:10:46;11.85;;;6.05;;
42714;SDS011;28351;51.480;5.706;2023-03-01T10:13:15;10.65;;;6.55;;
42714;SDS011;28351;51.480;5.706;2023-03-01T10:15:56;12.10;;;6.15;;
42714;SDS011;28351;51.480;5.706;2023-03-01T10:18:27;10.43;;;6.03;;
42714;SDS011;28351;51.480;5.706;2023-03-01T10:21:01;11.70;;;6.18;;
42714;SDS011;28351;51.480;5.706;2023-03-01T10:23:32;11.07;;;6.25;;
42714;SDS011;28351;51.480;5.706;2023-03-01T10:31:18;10.93;;;5.18;;
42714;SDS011;28351;51.480;5.706;2023-03-01T10:34:09;9.65;;;5.63;;
42714;SDS011;28351;51.480;5.706;2023-03-01T10:36:40;10.43;;;6.00;;
42714;SDS011;28351;51.480;5.706;2023-03-01T10:39:40;12.57;;;6.25;;
42714;SDS011;28351;51.480;5.706;2023-03-01T10:47:08;9.30;;;5.68;;
42714;SDS011;28351;51.480;5.706;2023-03-01T10:49:52;13.38;;;6.03;;
42714;SDS011;28351;51.480;5.706;2023-03-01T10:52:42;8.77;;;5.25;;
42714;SDS011;28351;51.480;5.706;2023-03-01T10:55:26;10.27;;;5.78;;
42714;SDS011;28351;51.480;5.706;2023-03-01T11:00:54;10.40;;;5.82;;
42714;SDS011;28351;51.480;5.706;2023-03-01T11:03:26;14.95;;;6.00;;
42714;SDS011;28351;51.480;5.706;2023-03-01T11:08:44;9.68;;;5.63;;
42714;SDS011;28351;51.480;5.706;2023-03-01T11:22:47;9.57;;;5.50;;
42714;SDS011;28351;51.480;5.706;2023-03-01T11:25:43;9.38;;;5.25;;
42714;SDS011;28351;51.480;5.706;2023-03-01T11:28:14;10.95;;;5.03;;
42714;SDS011;28351;51.480;5.706;2023-03-01T11:38:40;9.57;;;5.22;;
42714;SDS011;28351;51.480;5.706;2023-03-01T11:55:24;9.30;;;5.72;;
42714;SDS011;28351;51.480;5.706;2023-03-01T12:08:59;7.80;;;4.78;;
42714;SDS011;28351;51.480;5.706;2023-03-01T12:16:59;9.68;;;4.88;;
42714;SDS011;28351;51.480;5.706;2023-03-01T12:22:31;8.57;;;5.03;;
42714;SDS011;28351;51.480;5.706;2023-03-01T12:31:05;6.72;;;4.55;;
42714;SDS011;28351;51.480;5.706;2023-03-01T12:36:52;7.45;;;4.90;;
42714;SDS011;28351;51.480;5.706;2023-03-01T12:39:39;8.93;;;5.53;;
42714;SDS011;28351;51.480;5.706;2023-03-01T12:50:36;7.90;;;4.80;;
42714;SDS011;28351;51.480;5.706;2023-03-01T12:53:19;10.02;;;5.07;;
42714;SDS011;28351;51.480;5.706;2023-03-01T12:56:00;8.85;;;4.70;;
42714;SDS011;28351;51.480;5.706;2023-03-01T12:58:57;7.97;;;5.10;;
42714;SDS011;28351;51.480;5.706;2023-03-01T13:04:16;8.07;;;4.88;;
42714;SDS011;28351;51.480;5.706;2023-03-01T13:09:55;8.43;;;4.85;;
42714;SDS011;28351;51.480;5.706;2023-03-01T13:15:25;8.05;;;5.00;;
42714;SDS011;28351;51.480;5.706;2023-03-01T13:18:04;7.55;;;4.85;;
42714;SDS011;28351;51.480;5.706;2023-03-01T13:20:49;10.75;;;5.47;;
42714;SDS011;28351;51.480;5.706;2023-03-01T13:31:06;9.63;;;4.90;;
42714;SDS011;28351;51.480;5.706;2023-03-01T13:33:39;7.38;;;4.75;;
42714;SDS011;28351;51.480;5.706;2023-03-01T13:36:45;7.55;;;4.80;;
42714;SDS011;28351;51.480;5.706;2023-03-01T13:39:26;8.65;;;4.82;;
42714;SDS011;28351;51.480;5.706;2023-03-01T13:41:57;8.68;;;4.78;;
42714;SDS011;28351;51.480;5.706;2023-03-01T13:49:52;8.02;;;5.28;;
42714;SDS011;28351;51.480;5.706;2023-03-01T13:58:31;7.88;;;5.22;;
42714;SDS011;28351;51.480;5.706;2023-03-01T14:01:18;10.35;;;6.20;;
42714;SDS011;28351;51.480;5.706;2023-03-01T14:03:53;7.45;;;5.28;;
42714;SDS011;28351;51.480;5.706;2023-03-01T14:06:21;7.65;;;5.28;;
42714;SDS011;28351;51.480;5.706;2023-03-01T14:08:50;7.22;;;4.90;;
42714;SDS011;28351;51.480;5.706;2023-03-01T14:11:30;8.55;;;5.43;;
42714;SDS011;28351;51.480;5.706;2023-03-01T14:19:27;8.27;;;5.60;;
42714;SDS011;28351;51.480;5.706;2023-03-01T14:22:40;8.82;;;5.45;;
42714;SDS011;28351;51.480;5.706;2023-03-01T14:25:05;6.10;;;4.53;;
42714;SDS011;28351;51.480;5.706;2023-03-01T14:27:44;7.22;;;4.82;;
42714;SDS011;28351;51.480;5.706;2023-03-01T14:30:18;6.65;;;4.72;;
42714;SDS011;28351;51.480;5.706;2023-03-01T14:32:59;8.30;;;5.80;;
42714;SDS011;28351;51.480;5.706;2023-03-01T14:35:28;7.18;;;5.15;;
42714;SDS011;28351;51.480;5.706;2023-03-01T14:38:03;8.10;;;5.00;;
42714;SDS011;28351;51.480;5.706;2023-03-01T14:40:30;9.00;;;6.63;;
42714;SDS011;28351;51.480;5.706;2023-03-01T14:42:59;10.20;;;5.65;;
42714;SDS011;28351;51.480;5.706;2023-03-01T14:47:54;13.18;;;6.32;;
42714;SDS011;28351;51.480;5.706;2023-03-01T14:50:25;11.25;;;5.63;;
42714;SDS011;28351;51.480;5.706;2023-03-01T14:52:54;10.52;;;5.75;;
42714;SDS011;28351;51.480;5.706;2023-03-01T14:55:25;7.07;;;5.30;;
42714;SDS011;28351;51.480;5.706;2023-03-01T14:57:54;9.05;;;5.80;;
42714;SDS011;28351;51.480;5.706;2023-03-01T15:00:23;9.13;;;5.45;;
42714;SDS011;28351;51.480;5.706;2023-03-01T15:02:52;11.63;;;6.00;;
42714;SDS011;28351;51.480;5.706;2023-03-01T15:05:23;10.00;;;5.80;;
42714;SDS011;28351;51.480;5.706;2023-03-01T15:07:54;10.32;;;5.90;;
42714;SDS011;28351;51.480;5.706;2023-03-01T15:10:23;12.20;;;5.75;;
42714;SDS011;28351;51.480;5.706;2023-03-01T15:12:51;9.30;;;5.65;;
42714;SDS011;28351;51.480;5.706;2023-03-01T15:17:56;10.35;;;5.30;;
42714;SDS011;28351;51.480;5.706;2023-03-01T15:20:24;9.75;;;4.82;;
42714;SDS011;28351;51.480;5.706;2023-03-01T15:22:53;10.70;;;6.18;;
42714;SDS011;28351;51.480;5.706;2023-03-01T15:25:21;11.88;;;5.90;;
42714;SDS011;28351;51.480;5.706;2023-03-01T15:27:52;14.38;;;6.03;;
42714;SDS011;28351;51.480;5.706;2023-03-01T15:30:27;9.85;;;5.80;;
42714;SDS011;28351;51.480;5.706;2023-03-01T15:35:52;7.90;;;5.68;;
42714;SDS011;28351;51.480;5.706;2023-03-01T15:40:57;8.95;;;5.78;;
42714;SDS011;28351;51.480;5.706;2023-03-01T15:43:46;9.73;;;5.93;;
42714;SDS011;28351;51.480;5.706;2023-03-01T15:46:14;8.32;;;5.97;;
42714;SDS011;28351;51.480;5.706;2023-03-01T15:48:48;12.48;;;6.18;;
42714;SDS011;28351;51.480;5.706;2023-03-01T15:51:19;10.57;;;5.70;;
42714;SDS011;28351;51.480;5.706;2023-03-01T15:54:12;12.00;;;5.18;;
42714;SDS011;28351;51.480;5.706;2023-03-01T15:56:45;10.38;;;5.82;;
42714;SDS011;28351;51.480;5.706;2023-03-01T15:59:11;11.55;;;5.63;;
42714;SDS011;28351;51.480;5.706;2023-03-01T16:01:40;9.05;;;5.30;;
42714;SDS011;28351;51.480;5.706;2023-03-01T16:04:06;12.25;;;5.78;;
42714;SDS011;28351;51.480;5.706;2023-03-01T16:06:34;10.15;;;5.68;;
42714;SDS011;28351;51.480;5.706;2023-03-01T16:09:00;9.63;;;5.85;;
42714;SDS011;28351;51.480;5.706;2023-03-01T16:11:28;11.82;;;5.80;;
42714;SDS011;28351;51.480;5.706;2023-03-01T16:13:54;9.38;;;6.07;;
42714;SDS011;28351;51.480;5.706;2023-03-01T16:16:20;10.10;;;5.45;;
42714;SDS011;28351;51.480;5.706;2023-03-01T16:18:46;11.60;;;5.47;;
42714;SDS011;28351;51.480;5.706;2023-03-01T16:21:13;10.02;;;5.68;;
42714;SDS011;28351;51.480;5.706;2023-03-01T16:23:41;10.40;;;5.63;;
42714;SDS011;28351;51.480;5.706;2023-03-01T16:26:08;12.68;;;5.45;;
42714;SDS011;28351;51.480;5.706;2023-03-01T16:28:34;12.07;;;5.88;;
42714;SDS011;28351;51.480;5.706;2023-03-01T16:31:02;8.60;;;5.05;;
42714;SDS011;28351;51.480;5.706;2023-03-01T16:33:29;11.60;;;5.68;;
42714;SDS011;28351;51.480;5.706;2023-03-01T16:35:55;8.25;;;4.70;;
42714;SDS011;28351;51.480;5.706;2023-03-01T16:38:20;12.57;;;5.75;;
42714;SDS011;28351;51.480;5.706;2023-03-01T16:40:47;9.85;;;5.40;;
42714;SDS011;28351;51.480;5.706;2023-03-01T16:43:14;10.38;;;5.22;;
42714;SDS011;28351;51.480;5.706;2023-03-01T16:45:43;10.43;;;5.28;;
42714;SDS011;28351;51.480;5.706;2023-03-01T16:48:10;13.15;;;5.90;;
42714;SDS011;28351;51.480;5.706;2023-03-01T16:50:36;8.27;;;4.50;;
42714;SDS011;28351;51.480;5.706;2023-03-01T16:53:02;9.68;;;5.10;;
42714;SDS011;28351;51.480;5.706;2023-03-01T16:55:27;10.75;;;5.47;;
42714;SDS011;28351;51.480;5.706;2023-03-01T16:57:53;9.18;;;5.40;;
42714;SDS011;28351;51.480;5.706;2023-03-01T17:00:18;9.82;;;5.30;;
42714;SDS011;28351;51.480;5.706;2023-03-01T17:02:47;12.02;;;4.70;;
42714;SDS011;28351;51.480;5.706;2023-03-01T17:05:13;12.65;;;5.63;;
42714;SDS011;28351;51.480;5.706;2023-03-01T17:07:39;13.02;;;5.30;;
42714;SDS011;28351;51.480;5.706;2023-03-01T17:10:05;11.77;;;6.00;;
42714;SDS011;28351;51.480;5.706;2023-03-01T17:14:59;9.98;;;5.00;;
42714;SDS011;28351;51.480;5.706;2023-03-01T17:17:25;9.43;;;5.47;;
42714;SDS011;28351;51.480;5.706;2023-03-01T17:19:51;11.60;;;6.22;;
42714;SDS011;28351;51.480;5.706;2023-03-01T17:22:17;10.93;;;5.45;;
42714;SDS011;28351;51.480;5.706;2023-03-01T17:24:43;13.65;;;5.95;;
42714;SDS011;28351;51.480;5.706;2023-03-01T17:27:09;10.95;;;5.88;;
42714;SDS011;28351;51.480;5.706;2023-03-01T17:29:37;10.77;;;5.80;;
42714;SDS011;28351;51.480;5.706;2023-03-01T17:32:04;10.57;;;6.00;;
42714;SDS011;28351;51.480;5.706;2023-03-01T17:34:31;12.18;;;5.47;;
42714;SDS011;28351;51.480;5.706;2023-03-01T17:36:57;9.80;;;5.50;;
42714;SDS011;28351;51.480;5.706;2023-03-01T17:39:23;12.40;;;6.07;;
42714;SDS011;28351;51.480;5.706;2023-03-01T17:41:54;11.85;;;5.80;;
42714;SDS011;28351;51.480;5.706;2023-03-01T17:44:21;13.48;;;6.05;;
42714;SDS011;28351;51.480;5.706;2023-03-01T17:46:46;13.68;;;6.10;;
42714;SDS011;28351;51.480;5.706;2023-03-01T17:49:12;11.68;;;6.28;;
42714;SDS011;28351;51.480;5.706;2023-03-01T17:51:37;10.43;;;5.80;;
42714;SDS011;28351;51.480;5.706;2023-03-01T17:54:03;10.32;;;5.93;;
42714;SDS011;28351;51.480;5.706;2023-03-01T17:56:29;9.43;;;5.75;;
42714;SDS011;28351;51.480;5.706;2023-03-01T17:58:56;11.13;;;5.85;;
42714;SDS011;28351;51.480;5.706;2023-03-01T18:01:25;12.27;;;5.65;;
42714;SDS011;28351;51.480;5.706;2023-03-01T18:03:53;12.40;;;5.88;;
42714;SDS011;28351;51.480;5.706;2023-03-01T18:06:23;11.90;;;6.00;;
42714;SDS011;28351;51.480;5.706;2023-03-01T18:08:50;11.05;;;6.13;;
42714;SDS011;28351;51.480;5.706;2023-03-01T18:11:24;12.68;;;6.32;;
42714;SDS011;28351;51.480;5.706;2023-03-01T18:13:50;9.77;;;5.78;;
42714;SDS011;28351;51.480;5.706;2023-03-01T18:16:17;12.43;;;5.63;;
42714;SDS011;28351;51.480;5.706;2023-03-01T18:18:51;11.77;;;6.18;;
42714;SDS011;28351;51.480;5.706;2023-03-01T18:21:18;8.98;;;5.38;;
42714;SDS011;28351;51.480;5.706;2023-03-01T18:23:45;12.48;;;5.80;;
42714;SDS011;28351;51.480;5.706;2023-03-01T18:26:11;11.90;;;5.72;;
42714;SDS011;28351;51.480;5.706;2023-03-01T18:28:39;10.57;;;5.68;;
42714;SDS011;28351;51.480;5.706;2023-03-01T18:31:11;11.98;;;5.78;;
42714;SDS011;28351;51.480;5.706;2023-03-01T18:33:38;11.00;;;5.80;;
42714;SDS011;28351;51.480;5.706;2023-03-01T18:36:05;9.13;;;5.07;;